createdAt,value
2023-05-20T00:00:00.436Z,16.94
2023-05-20T00:01:00.478Z,16.94
2023-05-20T00:02:00.485Z,16.93
2023-05-20T00:03:00.540Z,16.93
2023-05-20T00:04:00.667Z,16.91
2023-05-20T00:05:00.678Z,16.86
2023-05-20T00:06:00.560Z,16.86
2023-05-20T00:07:00.585Z,16.90
2023-05-20T00:08:00.643Z,16.89
2023-05-20T00:09:00.688Z,16.86
2023-05-20T00:10:00.683Z,16.84
2023-05-20T00:11:00.702Z,16.86
2023-05-20T00:12:00.767Z,16.87
2023-05-20T00:13:00.807Z,16.87
2023-05-20T00:14:00.829Z,16.86
2023-05-20T00:15:00.845Z,16.86
2023-05-20T00:16:00.898Z,16.87
2023-05-20T00:17:00.938Z,16.90
2023-05-20T00:18:01.011Z,16.89
2023-05-20T00:19:01.004Z,16.88
2023-05-20T00:20:01.063Z,16.85
2023-05-20T00:21:01.070Z,16.82
2023-05-20T00:22:01.142Z,16.84
2023-05-20T00:23:01.209Z,16.86
2023-05-20T00:24:01.229Z,16.84
2023-05-20T00:25:01.302Z,16.83
2023-05-20T00:26:01.333Z,16.81
2023-05-20T00:27:01.390Z,16.77
2023-05-20T00:28:01.387Z,16.72
2023-05-20T00:29:01.428Z,16.71
2023-05-20T00:30:01.480Z,16.68
2023-05-20T00:31:01.545Z,16.68
2023-05-20T00:32:01.745Z,16.67
2023-05-20T00:33:01.747Z,16.68
2023-05-20T00:34:01.730Z,16.71
2023-05-20T00:35:01.741Z,16.73
2023-05-20T00:36:01.737Z,16.79
2023-05-20T00:37:01.752Z,16.78
2023-05-20T00:38:01.757Z,16.77
2023-05-20T00:39:01.777Z,16.77
2023-05-20T00:40:01.810Z,16.77
2023-05-20T00:41:01.772Z,16.77
2023-05-20T00:42:01.793Z,16.77
2023-05-20T00:43:01.797Z,16.77
2023-05-20T00:44:01.796Z,16.80
2023-05-20T00:45:01.807Z,16.81
2023-05-20T00:46:01.872Z,16.79
2023-05-20T00:47:01.858Z,16.73
2023-05-20T00:48:01.921Z,16.68
2023-05-20T00:49:01.954Z,16.64
2023-05-20T00:50:02.106Z,16.64
2023-05-20T00:51:02.104Z,16.61
2023-05-20T00:52:02.153Z,16.57
2023-05-20T00:53:02.212Z,16.57
2023-05-20T00:54:03.304Z,16.56
2023-05-20T00:55:02.227Z,16.55
2023-05-20T00:56:02.251Z,16.55
2023-05-20T00:57:02.231Z,16.52
2023-05-20T00:58:02.210Z,16.50
2023-05-20T00:59:02.284Z,16.46
2023-05-20T01:00:02.447Z,16.43
2023-05-20T01:01:02.437Z,16.42
2023-05-20T01:02:02.482Z,16.40
2023-05-20T01:03:02.553Z,16.38
2023-05-20T01:04:02.436Z,16.34
2023-05-20T01:05:02.484Z,16.33
2023-05-20T01:06:02.462Z,16.32
2023-05-20T01:07:02.473Z,16.32
2023-05-20T01:08:02.490Z,16.32
2023-05-20T01:09:03.308Z,16.30
2023-05-20T01:10:02.564Z,16.26
2023-05-20T01:11:02.551Z,16.25
2023-05-20T01:12:02.533Z,16.23
2023-05-20T01:13:02.592Z,16.19
2023-05-20T01:14:02.598Z,16.17
2023-05-20T01:15:02.648Z,16.17
2023-05-20T01:16:02.686Z,16.19
2023-05-20T01:17:02.670Z,16.19
2023-05-20T01:18:02.746Z,16.19
2023-05-20T01:19:02.717Z,16.24
2023-05-20T01:20:02.739Z,16.25
2023-05-20T01:21:02.778Z,16.26
2023-05-20T01:22:02.796Z,16.25
2023-05-20T01:23:02.826Z,16.27
2023-05-20T01:24:02.840Z,16.28
2023-05-20T01:25:02.894Z,16.26
2023-05-20T01:26:02.935Z,16.24
2023-05-20T01:27:02.956Z,16.20
2023-05-20T01:28:02.995Z,16.15
2023-05-20T01:29:03.020Z,16.14
2023-05-20T01:30:03.134Z,16.09
2023-05-20T01:31:03.227Z,16.03
2023-05-20T01:32:03.185Z,16.02
2023-05-20T01:33:03.283Z,16.04
2023-05-20T01:34:03.234Z,16.06
2023-05-20T01:35:03.322Z,16.10
2023-05-20T01:36:03.360Z,16.12
2023-05-20T01:37:03.409Z,16.09
2023-05-20T01:38:03.413Z,16.07
2023-05-20T01:39:03.443Z,16.00
2023-05-20T01:40:03.531Z,15.96
2023-05-20T01:41:03.570Z,15.95
2023-05-20T01:42:03.646Z,15.95
2023-05-20T01:43:03.683Z,15.97
2023-05-20T01:44:03.729Z,15.95
2023-05-20T01:45:03.779Z,15.94
2023-05-20T01:46:03.832Z,15.95
2023-05-20T01:47:03.918Z,15.93
2023-05-20T01:48:03.922Z,15.92
2023-05-20T01:49:03.908Z,15.91
2023-05-20T01:50:03.989Z,15.94
2023-05-20T01:51:04.014Z,15.96
2023-05-20T01:52:04.029Z,15.96
2023-05-20T01:53:04.079Z,15.97
2023-05-20T01:54:04.118Z,15.96
2023-05-20T01:55:04.164Z,15.96
2023-05-20T01:56:04.190Z,15.95
2023-05-20T01:57:04.227Z,15.92
2023-05-20T01:58:04.269Z,15.90
2023-05-20T01:59:04.301Z,15.88
2023-05-20T02:00:04.332Z,15.87
2023-05-20T02:01:04.444Z,15.85
2023-05-20T02:02:04.512Z,15.82
2023-05-20T02:03:04.520Z,15.80
2023-05-20T02:04:04.531Z,15.82
2023-05-20T02:05:04.657Z,15.79
2023-05-20T02:06:04.669Z,15.76
2023-05-20T02:07:04.682Z,15.77
2023-05-20T02:08:04.769Z,15.77
2023-05-20T02:09:04.806Z,15.78
2023-05-20T02:10:04.879Z,15.80
2023-05-20T02:11:04.920Z,15.78
2023-05-20T02:12:04.940Z,15.79
2023-05-20T02:13:06.239Z,15.76
2023-05-20T02:14:05.025Z,15.75
2023-05-20T02:15:05.240Z,15.75
2023-05-20T02:16:05.206Z,15.70
2023-05-20T02:17:05.237Z,15.70
2023-05-20T02:18:05.314Z,15.73
2023-05-20T02:19:05.407Z,15.73
2023-05-20T02:20:05.451Z,15.73
2023-05-20T02:21:05.457Z,15.73
2023-05-20T02:22:05.495Z,15.73
2023-05-20T02:23:05.569Z,15.75
2023-05-20T02:24:05.585Z,15.72
2023-05-20T02:25:05.719Z,15.72
2023-05-20T02:26:05.703Z,15.78
2023-05-20T02:27:05.804Z,15.75
2023-05-20T02:28:05.853Z,15.72
2023-05-20T02:29:05.889Z,15.68
2023-05-20T02:30:05.956Z,15.67
2023-05-20T02:31:05.972Z,15.67
2023-05-20T02:32:06.052Z,15.66
2023-05-20T02:33:06.194Z,15.67
2023-05-20T02:34:06.217Z,15.67
2023-05-20T02:35:06.278Z,15.70
2023-05-20T02:36:06.298Z,15.70
2023-05-20T02:37:06.334Z,15.71
2023-05-20T02:38:06.416Z,15.74
2023-05-20T02:39:06.459Z,15.72
2023-05-20T02:40:06.523Z,15.70
2023-05-20T02:41:06.558Z,15.66
2023-05-20T02:42:06.597Z,15.64
2023-05-20T02:43:06.684Z,15.65
2023-05-20T02:44:06.742Z,15.67
2023-05-20T02:45:06.846Z,15.65
2023-05-20T02:46:06.884Z,15.65
2023-05-20T02:47:06.909Z,15.66
2023-05-20T02:48:07.107Z,15.66
2023-05-20T02:49:06.992Z,15.67
2023-05-20T02:50:07.156Z,15.66
2023-05-20T02:51:07.127Z,15.64
2023-05-20T02:52:07.162Z,15.62
2023-05-20T02:53:07.272Z,15.62
2023-05-20T02:54:07.284Z,15.62
2023-05-20T02:55:07.677Z,15.65
2023-05-20T02:56:07.385Z,15.65
2023-05-20T02:57:07.387Z,15.62
2023-05-20T02:58:07.465Z,15.55
2023-05-20T02:59:07.859Z,15.53
2023-05-20T03:00:07.637Z,15.54
2023-05-20T03:01:07.664Z,15.55
2023-05-20T03:02:07.744Z,15.54
2023-05-20T03:03:07.869Z,15.56
2023-05-20T03:04:07.831Z,15.57
2023-05-20T03:05:07.876Z,15.55
2023-05-20T03:06:07.921Z,15.52
2023-05-20T03:07:07.989Z,15.51
2023-05-20T03:08:08.051Z,15.52
2023-05-20T03:09:08.098Z,15.51
2023-05-20T03:10:08.195Z,15.51
2023-05-20T03:11:08.271Z,15.51
2023-05-20T03:12:08.272Z,15.55
2023-05-20T03:13:08.310Z,15.59
2023-05-20T03:14:08.394Z,15.61
2023-05-20T03:15:08.402Z,15.62
2023-05-20T03:16:08.513Z,15.62
2023-05-20T03:17:08.457Z,15.64
2023-05-20T03:18:08.650Z,15.65
2023-05-20T03:19:08.619Z,15.68
2023-05-20T03:20:08.601Z,15.70
2023-05-20T03:21:08.638Z,15.71
2023-05-20T03:22:08.720Z,15.69
2023-05-20T03:23:08.790Z,15.63
2023-05-20T03:24:08.788Z,15.61
2023-05-20T03:25:08.830Z,15.58
2023-05-20T03:26:08.887Z,15.60
2023-05-20T03:27:08.923Z,15.61
2023-05-20T03:28:08.994Z,15.61
2023-05-20T03:29:09.050Z,15.60
2023-05-20T03:30:09.059Z,15.58
2023-05-20T03:31:09.201Z,15.56
2023-05-20T03:32:10.809Z,15.55
2023-05-20T03:33:09.242Z,15.55
2023-05-20T03:34:09.362Z,15.57
2023-05-20T03:35:09.315Z,15.58
2023-05-20T03:36:09.424Z,15.59
2023-05-20T03:37:09.390Z,15.55
2023-05-20T03:38:09.468Z,15.54
2023-05-20T03:39:09.517Z,15.54
2023-05-20T03:40:09.534Z,15.54
2023-05-20T03:41:09.637Z,15.51
2023-05-20T03:42:09.705Z,15.49
2023-05-20T03:43:09.732Z,15.44
2023-05-20T03:44:09.789Z,15.38
2023-05-20T03:45:09.806Z,15.32
2023-05-20T03:46:09.889Z,15.33
2023-05-20T03:47:09.885Z,15.36
2023-05-20T03:48:09.914Z,15.37
2023-05-20T03:49:09.951Z,15.36
2023-05-20T03:50:09.998Z,15.35
2023-05-20T03:51:10.010Z,15.34
2023-05-20T03:52:10.087Z,15.41
2023-05-20T03:53:10.113Z,15.46
2023-05-20T03:54:10.147Z,15.47
2023-05-20T03:55:10.175Z,15.45
2023-05-20T03:56:10.215Z,15.46
2023-05-20T03:57:10.209Z,15.48
2023-05-20T03:58:10.254Z,15.50
2023-05-20T03:59:10.272Z,15.56
2023-05-20T04:00:10.345Z,15.56
2023-05-20T04:01:10.377Z,15.55
2023-05-20T04:02:10.436Z,15.54
2023-05-20T04:03:10.539Z,15.54
2023-05-20T04:04:10.527Z,15.53
2023-05-20T04:05:10.528Z,15.53
2023-05-20T04:06:10.580Z,15.52
2023-05-20T04:07:10.621Z,15.52
2023-05-20T04:08:10.663Z,15.53
2023-05-20T04:09:10.698Z,15.56
2023-05-20T04:10:10.765Z,15.50
2023-05-20T04:11:10.777Z,15.46
2023-05-20T04:12:10.837Z,15.45
2023-05-20T04:13:10.829Z,15.47
2023-05-20T04:14:10.862Z,15.48
2023-05-20T04:15:10.869Z,15.53
2023-05-20T04:16:10.906Z,15.58
2023-05-20T04:17:10.977Z,15.61
2023-05-20T04:18:11.082Z,15.63
2023-05-20T04:19:11.051Z,15.62
2023-05-20T04:20:11.017Z,15.63
2023-05-20T04:21:11.098Z,15.61
2023-05-20T04:22:11.122Z,15.57
2023-05-20T04:23:11.157Z,15.60
2023-05-20T04:24:11.236Z,15.62
2023-05-20T04:25:11.187Z,15.61
2023-05-20T04:26:11.254Z,15.64
2023-05-20T04:27:11.288Z,15.66
2023-05-20T04:28:11.361Z,15.69
2023-05-20T04:29:11.383Z,15.68
2023-05-20T04:30:11.403Z,15.69
2023-05-20T04:31:11.427Z,15.70
2023-05-20T04:32:11.501Z,15.75
2023-05-20T04:33:11.533Z,15.79
2023-05-20T04:34:11.518Z,15.83
2023-05-20T04:35:11.604Z,15.85
2023-05-20T04:36:11.643Z,15.85
2023-05-20T04:37:11.692Z,15.84
2023-05-20T04:38:11.749Z,15.83
2023-05-20T04:39:11.804Z,15.83
2023-05-20T04:40:11.884Z,15.84
2023-05-20T04:41:11.945Z,15.84
2023-05-20T04:42:12.018Z,15.84
2023-05-20T04:43:12.083Z,15.82
2023-05-20T04:44:12.106Z,15.83
2023-05-20T04:45:12.195Z,15.83
2023-05-20T04:46:12.262Z,15.86
2023-05-20T04:47:12.291Z,15.89
2023-05-20T04:48:12.329Z,15.90
2023-05-20T04:49:12.375Z,15.89
2023-05-20T04:50:12.397Z,15.87
2023-05-20T04:51:12.417Z,15.88
2023-05-20T04:52:12.440Z,15.89
2023-05-20T04:53:12.460Z,15.90
2023-05-20T04:54:12.499Z,15.93
2023-05-20T04:55:12.488Z,15.96
2023-05-20T04:56:12.563Z,15.99
2023-05-20T04:57:12.576Z,16.02
2023-05-20T04:58:12.644Z,16.03
2023-05-20T04:59:12.688Z,16.02
2023-05-20T05:00:12.831Z,16.02
2023-05-20T05:01:12.815Z,15.99
2023-05-20T05:02:12.822Z,16.01
2023-05-20T05:03:12.886Z,16.03
2023-05-20T05:04:12.966Z,16.06
2023-05-20T05:05:12.922Z,16.06
2023-05-20T05:06:13.016Z,16.08
2023-05-20T05:07:12.992Z,16.08
2023-05-20T05:08:13.032Z,16.09
2023-05-20T05:09:13.106Z,16.10
2023-05-20T05:10:13.112Z,16.15
2023-05-20T05:11:13.187Z,16.22
2023-05-20T05:12:13.196Z,16.27
2023-05-20T05:13:13.293Z,16.31
2023-05-20T05:14:13.309Z,16.32
2023-05-20T05:15:13.356Z,16.29
2023-05-20T05:16:13.501Z,16.27
2023-05-20T05:17:13.441Z,16.27
2023-05-20T05:18:13.457Z,16.29
2023-05-20T05:19:13.720Z,16.30
2023-05-20T05:20:13.510Z,16.33
2023-05-20T05:21:13.585Z,16.35
2023-05-20T05:22:13.584Z,16.36
2023-05-20T05:23:13.579Z,16.40
2023-05-20T05:24:13.626Z,16.40
2023-05-20T05:25:13.658Z,16.39
2023-05-20T05:26:13.705Z,16.40
2023-05-20T05:27:13.682Z,16.41
2023-05-20T05:28:13.684Z,16.41
2023-05-20T05:29:13.685Z,16.43
2023-05-20T05:30:13.708Z,16.44
2023-05-20T05:31:13.701Z,16.44
2023-05-20T05:32:13.717Z,16.46
2023-05-20T05:33:13.717Z,16.51
2023-05-20T05:34:13.758Z,16.54
2023-05-20T05:35:13.776Z,16.58
2023-05-20T05:36:13.738Z,16.59
2023-05-20T05:37:13.777Z,16.60
2023-05-20T05:38:13.845Z,16.61
2023-05-20T05:39:13.887Z,16.61
2023-05-20T05:40:13.910Z,16.58
2023-05-20T05:41:13.923Z,16.58
2023-05-20T05:42:13.943Z,16.58
2023-05-20T05:43:13.925Z,16.61
2023-05-20T05:44:14.017Z,16.63
2023-05-20T05:45:14.056Z,16.64
2023-05-20T05:46:14.109Z,16.65
2023-05-20T05:47:14.212Z,16.63
2023-05-20T05:48:14.233Z,16.64
2023-05-20T05:49:14.261Z,16.66
2023-05-20T05:50:14.362Z,16.69
2023-05-20T05:51:14.415Z,16.68
2023-05-20T05:52:14.445Z,16.65
2023-05-20T05:53:14.506Z,16.68
2023-05-20T05:54:14.544Z,16.75
2023-05-20T05:55:14.579Z,16.79
2023-05-20T05:56:14.662Z,16.82
2023-05-20T05:57:14.680Z,16.78
2023-05-20T05:58:14.698Z,16.79
2023-05-20T05:59:14.713Z,16.83
2023-05-20T06:00:14.723Z,16.82
2023-05-20T06:01:14.818Z,16.79
2023-05-20T06:02:14.854Z,16.81
2023-05-20T06:03:14.889Z,16.79
2023-05-20T06:04:14.885Z,16.84
2023-05-20T06:05:14.883Z,16.84
2023-05-20T06:06:14.900Z,16.85
2023-05-20T06:07:14.943Z,16.85
2023-05-20T06:08:14.925Z,16.88
2023-05-20T06:09:14.957Z,16.83
2023-05-20T06:10:15.010Z,16.83
2023-05-20T06:11:14.979Z,16.82
2023-05-20T06:12:15.002Z,16.87
2023-05-20T06:13:15.007Z,16.90
2023-05-20T06:14:15.040Z,16.93
2023-05-20T06:15:15.079Z,16.97
2023-05-20T06:16:15.120Z,16.96
2023-05-20T06:17:15.130Z,16.97
2023-05-20T06:18:15.139Z,16.99
2023-05-20T06:19:15.175Z,17.00
2023-05-20T06:20:15.166Z,17.04
2023-05-20T06:21:15.260Z,17.10
2023-05-20T06:22:15.303Z,17.12
2023-05-20T06:23:15.328Z,17.12
2023-05-20T06:24:15.378Z,17.09
2023-05-20T06:25:15.385Z,17.10
2023-05-20T06:26:15.449Z,17.11
2023-05-20T06:27:15.456Z,17.13
2023-05-20T06:28:15.438Z,17.12
2023-05-20T06:29:15.477Z,17.12
2023-05-20T06:30:15.541Z,17.14
2023-05-20T06:31:15.544Z,17.17
2023-05-20T06:32:15.543Z,17.17
2023-05-20T06:33:15.571Z,17.10
2023-05-20T06:34:15.597Z,17.09
2023-05-20T06:35:15.567Z,17.12
2023-05-20T06:36:15.622Z,17.16
2023-05-20T06:37:15.562Z,17.19
2023-05-20T06:38:15.600Z,17.23
2023-05-20T06:39:15.582Z,17.25
2023-05-20T06:40:15.584Z,17.26
2023-05-20T06:41:15.611Z,17.22
2023-05-20T06:42:15.564Z,17.21
2023-05-20T06:43:15.570Z,17.22
2023-05-20T06:44:15.624Z,17.18
2023-05-20T06:45:15.588Z,17.19
2023-05-20T06:46:15.650Z,17.26
2023-05-20T06:47:15.616Z,17.33
2023-05-20T06:48:15.657Z,17.39
2023-05-20T06:49:15.710Z,17.45
2023-05-20T06:50:15.730Z,17.52
2023-05-20T06:51:15.891Z,17.62
2023-05-20T06:52:15.837Z,17.68
2023-05-20T06:53:15.957Z,17.71
2023-05-20T06:54:16.016Z,17.77
2023-05-20T06:55:16.068Z,17.82
2023-05-20T06:56:16.141Z,17.90
2023-05-20T06:57:16.124Z,17.93
2023-05-20T06:58:16.212Z,17.99
2023-05-20T06:59:16.250Z,17.99
2023-05-20T07:00:16.289Z,18.01
2023-05-20T07:01:18.096Z,18.00
2023-05-20T07:02:16.411Z,18.08
2023-05-20T07:03:16.410Z,18.09
2023-05-20T07:04:16.479Z,18.12
2023-05-20T07:05:16.510Z,18.14
2023-05-20T07:06:16.551Z,18.20
2023-05-20T07:07:17.434Z,18.17
2023-05-20T07:08:16.599Z,18.16
2023-05-20T07:09:16.567Z,18.15
2023-05-20T07:10:24.299Z,18.23
2023-05-20T07:11:16.630Z,18.31
2023-05-20T07:12:16.585Z,18.32
2023-05-20T07:13:16.612Z,18.30
2023-05-20T07:14:16.555Z,18.34
2023-05-20T07:15:16.566Z,18.38
2023-05-20T07:16:16.617Z,18.38
2023-05-20T07:17:16.577Z,18.39
2023-05-20T07:18:16.574Z,18.37
2023-05-20T07:19:16.703Z,18.35
2023-05-20T07:20:16.599Z,18.31
2023-05-20T07:21:16.564Z,18.32
2023-05-20T07:22:16.563Z,18.32
2023-05-20T07:23:16.517Z,18.32
2023-05-20T07:24:16.535Z,18.34
2023-05-20T07:25:16.537Z,18.40
2023-05-20T07:26:16.554Z,18.50
2023-05-20T07:27:16.536Z,18.51
2023-05-20T07:28:16.507Z,18.41
2023-05-20T07:29:16.515Z,18.33
2023-05-20T07:30:16.498Z,18.30
2023-05-20T07:31:16.558Z,18.43
2023-05-20T07:32:16.524Z,18.52
2023-05-20T07:33:16.530Z,18.64
2023-05-20T07:34:16.592Z,18.81
2023-05-20T07:35:16.592Z,18.90
2023-05-20T07:36:16.604Z,18.95
2023-05-20T07:37:16.611Z,18.97
2023-05-20T07:38:16.613Z,18.99
2023-05-20T07:39:16.646Z,18.94
2023-05-20T07:40:16.741Z,18.75
2023-05-20T07:41:16.780Z,18.56
2023-05-20T07:42:16.810Z,18.58
2023-05-20T07:43:16.816Z,18.59
2023-05-20T07:44:16.950Z,18.55
2023-05-20T07:45:16.873Z,18.62
2023-05-20T07:46:18.077Z,18.71
2023-05-20T07:47:16.872Z,18.79
2023-05-20T07:48:16.896Z,18.82
2023-05-20T07:49:16.845Z,18.85
2023-05-20T07:50:16.856Z,18.89
2023-05-20T07:51:16.854Z,18.82
2023-05-20T07:52:16.816Z,18.70
2023-05-20T07:53:16.837Z,18.72
2023-05-20T07:54:16.800Z,18.82
2023-05-20T07:55:16.825Z,18.91
2023-05-20T07:56:16.807Z,18.97
2023-05-20T07:57:16.822Z,18.97
2023-05-20T07:58:24.448Z,18.99
2023-05-20T07:59:16.786Z,19.01
2023-05-20T08:00:16.774Z,19.02
2023-05-20T08:01:16.822Z,19.05
2023-05-20T08:02:16.806Z,19.13
2023-05-20T08:03:16.877Z,19.22
2023-05-20T08:04:16.843Z,19.26
2023-05-20T08:05:16.756Z,19.24
2023-05-20T08:06:16.779Z,19.23
2023-05-20T08:07:16.756Z,19.17
2023-05-20T08:08:16.716Z,19.05
2023-05-20T08:09:16.743Z,19.04
2023-05-20T08:10:16.700Z,19.09
2023-05-20T08:11:16.739Z,19.16
2023-05-20T08:12:16.732Z,19.23
2023-05-20T08:13:16.711Z,19.26
2023-05-20T08:14:16.720Z,19.27
2023-05-20T08:15:16.654Z,19.24
2023-05-20T08:16:16.748Z,19.36
2023-05-20T08:17:16.740Z,19.44
2023-05-20T08:18:16.663Z,19.57
2023-05-20T08:19:16.728Z,19.62
2023-05-20T08:20:16.636Z,19.61
2023-05-20T08:21:16.666Z,19.56
2023-05-20T08:22:16.642Z,19.58
2023-05-20T08:23:16.608Z,19.52
2023-05-20T08:24:16.608Z,19.55
2023-05-20T08:25:16.619Z,19.68
2023-05-20T08:26:16.599Z,19.81
2023-05-20T08:27:16.608Z,19.89
2023-05-20T08:28:16.579Z,19.96
2023-05-20T08:29:16.605Z,19.95
2023-05-20T08:30:16.622Z,19.95
2023-05-20T08:31:16.662Z,19.95
2023-05-20T08:32:16.637Z,19.91
2023-05-20T08:33:16.622Z,19.93
2023-05-20T08:34:16.664Z,19.95
2023-05-20T08:35:16.704Z,19.99
2023-05-20T08:36:16.768Z,19.97
2023-05-20T08:37:16.890Z,20.02
2023-05-20T08:38:16.896Z,19.96
2023-05-20T08:39:17.002Z,20.01
2023-05-20T08:40:17.010Z,20.11
2023-05-20T08:41:17.077Z,20.25
2023-05-20T08:42:17.079Z,20.37
2023-05-20T08:43:17.152Z,20.36
2023-05-20T08:44:17.174Z,20.45
2023-05-20T08:45:17.163Z,20.53
2023-05-20T08:46:18.300Z,20.57
2023-05-20T08:47:17.215Z,20.52
2023-05-20T08:48:17.208Z,20.57
2023-05-20T08:49:17.177Z,20.64
2023-05-20T08:50:17.244Z,20.50
2023-05-20T08:51:17.295Z,20.42
2023-05-20T08:52:17.357Z,20.44
2023-05-20T08:53:17.313Z,20.47
2023-05-20T08:54:17.348Z,20.56
2023-05-20T08:55:17.345Z,20.64
2023-05-20T08:56:17.414Z,20.73
2023-05-20T08:57:17.391Z,20.76
2023-05-20T08:58:17.475Z,20.76
2023-05-20T08:59:17.539Z,20.73
2023-05-20T09:00:17.580Z,20.79
2023-05-20T09:01:17.685Z,20.79
2023-05-20T09:02:17.784Z,20.80
2023-05-20T09:03:17.758Z,20.79
2023-05-20T09:04:17.750Z,20.80
2023-05-20T09:05:17.864Z,20.82
2023-05-20T09:06:17.902Z,20.87
2023-05-20T09:07:17.911Z,20.96
2023-05-20T09:08:17.979Z,21.06
2023-05-20T09:09:18.137Z,20.99
2023-05-20T09:10:18.143Z,20.97
2023-05-20T09:11:18.096Z,20.88
2023-05-20T09:12:18.173Z,20.91
2023-05-20T09:13:18.181Z,20.68
2023-05-20T09:14:18.176Z,20.85
2023-05-20T09:15:18.227Z,20.98
2023-05-20T09:16:18.271Z,21.05
2023-05-20T09:17:18.303Z,20.99
2023-05-20T09:18:18.399Z,21.05
2023-05-20T09:19:18.431Z,21.09
2023-05-20T09:20:18.440Z,21.20
2023-05-20T09:21:18.469Z,21.27
2023-05-20T09:22:18.541Z,21.32
2023-05-20T09:23:18.535Z,21.35
2023-05-20T09:24:18.602Z,21.51
2023-05-20T09:25:18.612Z,21.58
2023-05-20T09:26:18.619Z,21.58
2023-05-20T09:27:18.661Z,21.59
2023-05-20T09:28:18.668Z,21.66
2023-05-20T09:29:18.656Z,21.69
2023-05-20T09:30:18.713Z,21.78
2023-05-20T09:31:18.726Z,21.90
2023-05-20T09:32:18.759Z,21.98
2023-05-20T09:33:18.729Z,22.11
2023-05-20T09:34:18.784Z,22.14
2023-05-20T09:35:18.814Z,22.17
2023-05-20T09:36:18.888Z,22.01
2023-05-20T09:37:18.909Z,21.95
2023-05-20T09:38:18.930Z,22.07
2023-05-20T09:39:18.944Z,22.13
2023-05-20T09:40:19.058Z,22.26
2023-05-20T09:41:19.018Z,22.33
2023-05-20T09:42:19.056Z,22.38
2023-05-20T09:43:19.090Z,22.19
2023-05-20T09:44:19.092Z,22.23
2023-05-20T09:45:19.182Z,22.06
2023-05-20T09:46:19.168Z,22.00
2023-05-20T09:47:19.284Z,22.05
2023-05-20T09:48:19.265Z,22.07
2023-05-20T09:49:19.284Z,22.16
2023-05-20T09:50:19.369Z,22.29
2023-05-20T09:51:19.326Z,22.37
2023-05-20T09:52:21.341Z,22.46
2023-05-20T09:53:19.386Z,22.57
2023-05-20T09:54:19.441Z,22.72
2023-05-20T09:55:19.479Z,22.82
2023-05-20T09:56:19.445Z,22.82
2023-05-20T09:57:19.540Z,22.84
2023-05-20T09:58:19.584Z,22.82
2023-05-20T09:59:19.620Z,22.89
2023-05-20T10:00:19.913Z,22.95
2023-05-20T10:01:19.649Z,22.93
2023-05-20T10:02:19.756Z,22.95
2023-05-20T10:03:19.717Z,22.97
2023-05-20T10:04:19.667Z,23.07
2023-05-20T10:05:19.736Z,23.10
2023-05-20T10:06:19.735Z,23.02
2023-05-20T10:07:30.570Z,22.98
2023-05-20T10:08:20.712Z,22.99
2023-05-20T10:09:19.688Z,22.84
2023-05-20T10:10:19.721Z,22.84
2023-05-20T10:11:19.724Z,22.84
2023-05-20T10:12:19.691Z,22.84
2023-05-20T10:13:19.684Z,22.90
2023-05-20T10:14:19.679Z,22.98
2023-05-20T10:15:19.634Z,23.00
2023-05-20T10:16:19.677Z,23.01
2023-05-20T10:17:19.664Z,23.08
2023-05-20T10:18:19.672Z,23.15
2023-05-20T10:19:19.683Z,23.17
2023-05-20T10:20:19.633Z,23.18
2023-05-20T10:21:19.615Z,23.20
2023-05-20T10:22:19.656Z,23.23
2023-05-20T10:23:19.584Z,23.28
2023-05-20T10:24:19.588Z,23.27
2023-05-20T10:25:19.600Z,23.29
2023-05-20T10:26:19.646Z,23.35
2023-05-20T10:27:19.688Z,23.46
2023-05-20T10:28:19.648Z,23.57
2023-05-20T10:29:19.713Z,23.67
2023-05-20T10:30:19.791Z,23.76
2023-05-20T10:31:19.819Z,23.75
2023-05-20T10:32:19.903Z,23.82
2023-05-20T10:33:19.841Z,23.84
2023-05-20T10:34:19.914Z,23.86
2023-05-20T10:35:19.858Z,23.98
2023-05-20T10:36:19.904Z,24.11
2023-05-20T10:37:19.909Z,24.23
2023-05-20T10:38:19.956Z,24.32
2023-05-20T10:39:19.998Z,24.38
2023-05-20T10:40:20.030Z,24.51
2023-05-20T10:41:20.083Z,24.62
2023-05-20T10:42:20.087Z,24.74
2023-05-20T10:43:20.911Z,24.85
2023-05-20T10:44:20.196Z,24.98
2023-05-20T10:45:20.202Z,24.91
2023-05-20T10:46:31.192Z,24.79
2023-05-20T10:47:25.713Z,24.82
2023-05-20T10:48:21.278Z,24.83
2023-05-20T10:49:22.439Z,24.92
2023-05-20T10:50:20.240Z,25.01
2023-05-20T10:51:20.199Z,24.98
2023-05-20T10:52:20.195Z,24.98
2023-05-20T10:53:29.764Z,25.00
2023-05-20T10:54:21.187Z,24.89
2023-05-20T10:55:20.203Z,24.92
2023-05-20T10:56:20.123Z,24.85
2023-05-20T10:57:20.175Z,24.86
2023-05-20T10:58:20.136Z,24.90
2023-05-20T10:59:20.172Z,24.94
2023-05-20T11:00:20.128Z,24.96
2023-05-20T11:01:20.232Z,25.00
2023-05-20T11:02:20.123Z,25.04
2023-05-20T11:03:20.243Z,25.12
2023-05-20T11:04:20.120Z,25.16
2023-05-20T11:05:20.127Z,25.16
2023-05-20T11:06:20.139Z,25.09
2023-05-20T11:07:20.117Z,25.07
2023-05-20T11:08:28.921Z,25.02
2023-05-20T11:09:21.081Z,24.83
2023-05-20T11:10:20.093Z,24.63
2023-05-20T11:11:20.078Z,24.55
2023-05-20T11:12:20.090Z,24.62
2023-05-20T11:13:20.095Z,24.75
2023-05-20T11:14:20.148Z,24.86
2023-05-20T11:15:20.061Z,24.98
2023-05-20T11:16:20.070Z,25.07
2023-05-20T11:17:20.077Z,25.15
2023-05-20T11:18:20.077Z,25.20
2023-05-20T11:19:20.221Z,25.21
2023-05-20T11:20:20.017Z,25.15
2023-05-20T11:21:20.065Z,25.20
2023-05-20T11:22:20.105Z,25.13
2023-05-20T11:23:20.162Z,25.13
2023-05-20T11:24:20.164Z,25.18
2023-05-20T11:25:20.186Z,25.22
2023-05-20T11:26:20.228Z,25.25
2023-05-20T11:27:20.283Z,25.28
2023-05-20T11:28:20.287Z,25.14
2023-05-20T11:29:20.272Z,25.14
2023-05-20T11:30:20.335Z,25.14
2023-05-20T11:31:20.359Z,25.20
2023-05-20T11:32:20.516Z,25.25
2023-05-20T11:33:20.595Z,25.27
2023-05-20T11:34:21.095Z,25.24
2023-05-20T11:35:20.530Z,25.22
2023-05-20T11:36:27.829Z,25.17
2023-05-20T11:37:21.567Z,25.08
2023-05-20T11:38:20.546Z,25.03
2023-05-20T11:39:20.563Z,25.00
2023-05-20T11:40:20.507Z,25.09
2023-05-20T11:41:20.522Z,25.14
2023-05-20T11:42:20.571Z,25.18
2023-05-20T11:43:20.486Z,25.13
2023-05-20T11:44:20.483Z,24.84
2023-05-20T11:45:20.488Z,24.79
2023-05-20T11:46:20.572Z,24.84
2023-05-20T11:47:22.577Z,24.85
2023-05-20T11:48:20.460Z,24.87
2023-05-20T11:49:20.498Z,24.94
2023-05-20T11:50:20.542Z,25.04
2023-05-20T11:51:20.522Z,25.11
2023-05-20T11:52:20.597Z,25.08
2023-05-20T11:53:20.605Z,24.96
2023-05-20T11:54:20.638Z,24.98
2023-05-20T11:55:20.676Z,25.03
2023-05-20T11:56:20.691Z,25.01
2023-05-20T11:57:20.746Z,25.06
2023-05-20T11:58:20.705Z,25.10
2023-05-20T11:59:20.715Z,25.14
2023-05-20T12:00:20.761Z,25.00
2023-05-20T12:01:22.673Z,24.78
2023-05-20T12:02:21.056Z,24.66
2023-05-20T12:03:21.204Z,24.73
2023-05-20T12:04:21.187Z,24.86
2023-05-20T12:05:21.171Z,24.96
2023-05-20T12:06:21.156Z,25.01
2023-05-20T12:07:21.196Z,25.05
2023-05-20T12:08:21.222Z,25.07
2023-05-20T12:09:21.231Z,25.08
2023-05-20T12:10:21.304Z,25.09
2023-05-20T12:11:21.328Z,25.10
2023-05-20T12:12:21.350Z,25.09
2023-05-20T12:13:21.301Z,25.09
2023-05-20T12:14:21.403Z,25.03
2023-05-20T12:15:21.426Z,25.07
2023-05-20T12:16:21.502Z,24.95
2023-05-20T12:17:21.520Z,24.76
2023-05-20T12:18:21.551Z,24.84
2023-05-20T12:19:21.673Z,24.91
2023-05-20T12:20:21.553Z,24.95
2023-05-20T12:21:21.602Z,24.98
2023-05-20T12:22:21.621Z,24.98
2023-05-20T12:23:21.640Z,24.92
2023-05-20T12:24:21.686Z,24.91
2023-05-20T12:25:21.764Z,24.87
2023-05-20T12:26:21.720Z,24.87
2023-05-20T12:27:21.761Z,24.88
2023-05-20T12:28:21.778Z,24.86
2023-05-20T12:29:21.823Z,24.69
2023-05-20T12:30:21.854Z,24.47
2023-05-20T12:31:21.935Z,24.45
2023-05-20T12:32:21.940Z,24.51
2023-05-20T12:33:21.917Z,24.55
2023-05-20T12:34:21.963Z,24.53
2023-05-20T12:35:21.966Z,24.37
2023-05-20T12:36:22.019Z,24.34
2023-05-20T12:37:22.073Z,24.35
2023-05-20T12:38:22.142Z,24.39
2023-05-20T12:39:22.161Z,24.42
2023-05-20T12:40:22.202Z,24.38
2023-05-20T12:41:22.209Z,24.31
2023-05-20T12:42:22.282Z,24.33
2023-05-20T12:43:22.277Z,24.44
2023-05-20T12:44:22.354Z,24.54
2023-05-20T12:45:22.396Z,24.77
2023-05-20T12:46:22.449Z,24.93
2023-05-20T12:47:22.441Z,25.02
2023-05-20T12:48:22.440Z,25.07
2023-05-20T12:49:22.422Z,25.06
2023-05-20T12:50:22.476Z,25.03
2023-05-20T12:51:22.488Z,24.96
2023-05-20T12:52:23.152Z,24.94